Time;durP1;ratioP1;P1;durP2;ratioP2;P2;SDS_P1;SDS_P2;PMS_P1;PMS_P2;Temp;Humidity;BMP_temperature;BMP_pressure;BME280_temperature;BME280_humidity;BME280_pressure;Samples;Min_cycle;Max_cycle;Signal;HPM_P1;HPM_P2
2022/04/25 00:01:57;;;;;;;2.03;1.80;;;7.30;99.90;;;;;;4198507;28;20313;-73
2022/04/25 00:03:57;;;;;;;2.40;1.93;;;7.30;99.90;;;;;;4180796;28;20651;-75
2022/04/25 00:05:58;;;;;;;2.33;2.13;;;7.30;99.90;;;;;;4197719;28;20184;-73
2022/04/25 00:07:58;;;;;;;3.00;2.47;;;7.30;99.90;;;;;;4196230;28;20604;-74
2022/04/25 00:09:59;;;;;;;2.63;1.77;;;7.30;99.90;;;;;;4198321;28;20546;-74
2022/04/25 00:12:00;;;;;;;3.33;2.60;;;7.40;99.90;;;;;;4196484;28;20549;-74
2022/04/25 00:14:00;;;;;;;2.17;1.63;;;7.40;99.90;;;;;;4197090;28;20208;-74
2022/04/25 00:16:01;;;;;;;1.53;1.40;;;7.40;99.90;;;;;;4198270;28;20189;-74
2022/04/25 00:18:02;;;;;;;1.70;1.60;;;7.40;99.90;;;;;;4196910;28;20199;-74
2022/04/25 00:20:05;;;;;;;1.90;1.70;;;7.30;99.90;;;;;;4196903;28;20750;-74
2022/04/25 00:22:05;;;;;;;2.00;1.67;;;7.20;99.90;;;;;;4197871;28;20183;-73
2022/04/25 00:24:06;;;;;;;1.83;1.50;;;7.20;99.90;;;;;;4196614;28;20453;-74
2022/04/25 00:26:07;;;;;;;2.53;1.90;;;7.20;99.90;;;;;;4180108;28;20203;-76
2022/04/25 00:28:08;;;;;;;1.93;1.67;;;7.20;99.90;;;;;;4197053;28;20867;-75
2022/04/25 00:30:09;;;;;;;2.37;1.93;;;7.20;99.90;;;;;;4198763;28;20656;-75
2022/04/25 00:32:10;;;;;;;3.10;2.00;;;7.10;99.90;;;;;;4194908;28;20184;-75
2022/04/25 00:34:10;;;;;;;2.70;2.00;;;7.10;99.90;;;;;;4197483;28;20432;-75
2022/04/25 00:36:11;;;;;;;2.60;1.90;;;7.10;99.90;;;;;;4197741;28;20195;-76
2022/04/25 00:38:12;;;;;;;1.90;1.60;;;7.00;99.90;;;;;;4196876;28;20199;-76
2022/04/25 00:40:13;;;;;;;2.40;1.87;;;6.90;99.90;;;;;;4197578;28;20223;-76
2022/04/25 00:42:14;;;;;;;2.43;1.80;;;6.90;99.90;;;;;;4197170;28;20228;-75
2022/04/25 00:44:16;;;;;;;2.93;1.70;;;6.90;99.90;;;;;;4198265;28;20191;-75
2022/04/25 00:46:24;;;;;;;1.50;1.40;;;7.00;99.90;;;;;;4196861;28;20418;-77
2022/04/25 00:48:25;;;;;;;3.23;2.03;;;7.00;99.90;;;;;;4197848;28;20437;-75
2022/04/25 00:50:25;;;;;;;2.27;1.90;;;7.00;99.90;;;;;;4196935;28;20428;-75
2022/04/25 00:52:26;;;;;;;2.77;2.03;;;6.90;99.90;;;;;;4197197;28;20183;-76
2022/04/25 00:54:27;;;;;;;4.97;3.03;;;6.80;99.90;;;;;;4198601;28;20753;-76
2022/04/25 00:56:28;;;;;;;3.07;2.17;;;6.80;99.90;;;;;;4197676;28;20195;-76
2022/04/25 00:58:29;;;;;;;3.10;2.43;;;6.70;99.90;;;;;;4197082;28;20865;-74
2022/04/25 01:00:32;;;;;;;2.90;2.20;;;6.60;99.90;;;;;;4196990;28;20203;-74
2022/04/25 01:02:33;;;;;;;3.80;2.40;;;6.60;99.90;;;;;;4196878;28;20183;-74
2022/04/25 01:04:33;;;;;;;3.60;2.37;;;6.60;99.90;;;;;;4198167;28;20426;-75
2022/04/25 01:06:34;;;;;;;5.10;3.20;;;6.50;99.90;;;;;;4196425;28;20202;-73
2022/04/25 01:08:37;;;;;;;3.97;2.23;;;6.40;99.90;;;;;;4196315;28;20204;-74
2022/04/25 01:10:38;;;;;;;3.50;2.47;;;6.40;99.90;;;;;;4196594;28;20554;-75
2022/04/25 01:12:39;;;;;;;3.17;2.50;;;6.40;99.90;;;;;;4196578;28;20493;-76
2022/04/25 01:14:39;;;;;;;3.43;2.40;;;6.30;99.90;;;;;;4198188;28;20188;-74
2022/04/25 01:16:40;;;;;;;3.20;2.07;;;6.20;99.90;;;;;;4196261;28;20188;-74
2022/04/25 01:18:41;;;;;;;4.30;2.67;;;6.20;99.90;;;;;;4198660;28;20636;-74
2022/04/25 01:20:42;;;;;;;3.73;2.40;;;6.20;99.90;;;;;;4196834;28;20175;-75
2022/04/25 01:22:52;;;;;;;3.70;2.23;;;6.10;99.90;;;;;;4196932;28;20203;-74
2022/04/25 01:27:17;;;;;;;4.70;3.13;;;6.00;99.90;;;;;;4197679;28;20563;-75
2022/04/25 01:29:18;;;;;;;5.40;3.50;;;6.10;99.90;;;;;;4198447;28;20442;-74
2022/04/25 01:31:18;;;;;;;5.43;3.43;;;6.20;99.90;;;;;;4197205;28;20920;-75
2022/04/25 01:33:19;;;;;;;5.80;3.80;;;6.10;99.90;;;;;;4197101;28;20701;-75
2022/04/25 01:35:20;;;;;;;7.43;4.60;;;6.10;99.90;;;;;;4179637;28;20198;-77
2022/04/25 01:37:21;;;;;;;6.17;4.10;;;6.10;99.90;;;;;;4196943;28;20191;-74
2022/04/25 01:39:21;;;;;;;6.23;4.40;;;6.10;99.90;;;;;;4197361;28;20214;-75
2022/04/25 01:41:22;;;;;;;6.57;4.33;;;6.20;99.90;;;;;;4197176;28;20851;-74
2022/04/25 01:43:23;;;;;;;7.73;5.10;;;6.20;99.90;;;;;;4196940;28;20183;-74
2022/04/25 01:45:24;;;;;;;8.20;5.07;;;6.20;99.90;;;;;;4197497;28;20579;-75
2022/04/25 01:47:24;;;;;;;6.90;4.43;;;6.30;99.90;;;;;;4197899;28;20195;-74
2022/04/25 01:49:25;;;;;;;7.87;5.00;;;6.30;99.90;;;;;;4197303;28;20203;-75
2022/04/25 01:51:26;;;;;;;7.63;5.43;;;6.20;99.90;;;;;;4197862;28;20191;-74
2022/04/25 01:53:27;;;;;;;8.23;5.13;;;6.20;99.90;;;;;;4198096;28;20278;-74
2022/04/25 01:55:27;;;;;;;9.60;5.60;;;6.30;99.90;;;;;;4196380;28;20188;-74
2022/04/25 01:57:29;;;;;;;3.13;2.47;;;6.20;99.90;;;;;;4196208;28;20180;-74
2022/04/25 01:59:30;;;;;;;5.43;3.47;;;6.00;99.90;;;;;;4196988;28;20210;-74
2022/04/25 02:01:31;;;;;;;3.47;2.80;;;5.90;99.90;;;;;;4199949;28;21203;-74
2022/04/25 02:03:33;;;;;;;5.57;3.10;;;5.90;99.90;;;;;;4201137;28;20449;-75
2022/04/25 02:05:34;;;;;;;3.27;2.30;;;5.90;99.90;;;;;;4200402;28;20300;-74
2022/04/25 02:07:35;;;;;;;4.50;2.70;;;5.90;99.90;;;;;;4201049;28;20426;-74
2022/04/25 02:09:37;;;;;;;3.87;2.47;;;5.90;99.90;;;;;;4199950;28;20194;-74
2022/04/25 02:11:38;;;;;;;4.23;2.90;;;5.90;99.90;;;;;;4183193;28;20219;-74
2022/04/25 02:13:38;;;;;;;4.93;3.13;;;6.00;99.90;;;;;;4199702;28;20426;-74
2022/04/25 02:15:39;;;;;;;4.90;3.17;;;6.10;99.90;;;;;;4198673;28;20484;-74
2022/04/25 02:17:41;;;;;;;6.00;3.60;;;6.10;99.90;;;;;;4199955;28;20192;-76
2022/04/25 02:19:44;;;;;;;5.07;3.40;;;6.10;99.90;;;;;;4200433;28;20207;-74
2022/04/25 02:21:45;;;;;;;6.27;3.63;;;6.30;99.90;;;;;;4199297;28;20429;-73
2022/04/25 02:23:46;;;;;;;3.87;3.00;;;6.30;99.90;;;;;;4199509;28;20436;-74
2022/04/25 02:25:47;;;;;;;4.33;2.77;;;6.20;99.90;;;;;;4166156;28;20633;-74
2022/04/25 02:27:47;;;;;;;3.63;2.70;;;6.30;99.90;;;;;;4199381;28;20429;-74
2022/04/25 02:29:53;;;;;;;4.77;3.30;;;6.20;99.90;;;;;;4200470;28;20248;-75
2022/04/25 02:31:54;;;;;;;5.30;2.87;;;6.10;99.90;;;;;;4200266;28;20167;-74
2022/04/25 02:33:55;;;;;;;4.77;2.90;;;6.10;99.90;;;;;;4199106;28;20429;-74
2022/04/25 02:35:55;;;;;;;4.97;3.43;;;6.10;99.90;;;;;;4197202;28;20276;-74
2022/04/25 02:37:56;;;;;;;4.80;3.20;;;6.30;99.90;;;;;;4182619;28;20211;-74
2022/04/25 02:39:57;;;;;;;5.40;3.17;;;6.10;99.90;;;;;;4199784;28;20550;-75
2022/04/25 02:41:58;;;;;;;5.67;3.53;;;6.00;99.90;;;;;;4200575;28;20211;-74
2022/04/25 02:43:58;;;;;;;3.70;2.77;;;6.00;99.90;;;;;;4198957;28;20269;-74
2022/04/25 02:45:59;;;;;;;5.47;3.00;;;6.10;99.90;;;;;;4198953;28;20187;-73
2022/04/25 02:48:00;;;;;;;5.47;3.87;;;6.10;99.90;;;;;;4200423;28;20202;-73
2022/04/25 02:50:00;;;;;;;5.50;3.33;;;6.10;99.90;;;;;;4200767;28;20184;-74
2022/04/25 02:52:02;;;;;;;4.07;2.73;;;6.20;99.90;;;;;;4195599;28;20222;-75
2022/04/25 02:54:03;;;;;;;2.97;2.20;;;6.20;99.90;;;;;;4198392;28;20430;-74
2022/04/25 02:56:05;;;;;;;4.03;2.70;;;6.20;99.90;;;;;;4197942;28;20430;-75
2022/04/25 02:58:08;;;;;;;4.47;3.70;;;6.20;99.90;;;;;;4198789;28;20453;-74
2022/04/25 03:00:09;;;;;;;3.87;2.80;;;6.20;99.90;;;;;;4198402;28;20466;-74
2022/04/25 03:02:10;;;;;;;3.60;2.70;;;6.30;99.90;;;;;;4215254;28;20796;-74
2022/04/25 03:04:11;;;;;;;5.00;3.00;;;6.30;99.90;;;;;;4200127;28;20421;-74
2022/04/25 03:06:12;;;;;;;4.10;2.57;;;6.30;99.90;;;;;;4199631;28;20459;-74
2022/04/25 03:08:19;;;;;;;2.87;2.03;;;6.20;99.90;;;;;;4196238;28;20211;-75
2022/04/25 03:10:20;;;;;;;3.23;2.30;;;6.30;99.90;;;;;;4194285;28;20203;-75
2022/04/25 03:12:20;;;;;;;3.50;2.90;;;6.20;99.90;;;;;;4196605;28;20491;-74
2022/04/25 03:14:22;;;;;;;3.57;2.70;;;6.10;99.90;;;;;;4195434;28;20187;-75
2022/04/25 03:16:22;;;;;;;4.97;3.10;;;6.20;99.90;;;;;;4196213;28;20415;-74
2022/04/25 03:18:23;;;;;;;3.40;2.80;;;6.10;99.90;;;;;;4196230;28;21004;-74
2022/04/25 03:20:24;;;;;;;2.87;2.57;;;6.10;99.90;;;;;;4195389;28;20268;-75
2022/04/25 03:22:26;;;;;;;4.00;2.73;;;6.10;99.90;;;;;;4195391;28;20222;-75
2022/04/25 03:24:26;;;;;;;3.77;2.97;;;6.00;99.90;;;;;;4195368;28;20263;-75
2022/04/25 03:26:27;;;;;;;4.40;2.63;;;6.00;99.90;;;;;;4198034;28;20417;-75
2022/04/25 03:28:28;;;;;;;3.90;2.63;;;6.10;99.90;;;;;;4181594;28;20208;-74
2022/04/25 03:30:28;;;;;;;4.57;3.33;;;6.00;99.90;;;;;;4199063;28;20175;-75
2022/04/25 03:32:29;;;;;;;6.43;4.17;;;6.10;99.90;;;;;;4181404;28;20184;-74
2022/04/25 03:34:30;;;;;;;5.10;3.40;;;6.00;99.90;;;;;;4214485;28;20202;-74
2022/04/25 03:36:31;;;;;;;4.63;3.07;;;6.00;99.90;;;;;;4198978;28;20270;-75
2022/04/25 03:38:32;;;;;;;4.10;2.93;;;6.00;99.90;;;;;;4199053;28;20473;-74
2022/04/25 03:40:37;;;;;;;3.97;2.93;;;6.10;99.90;;;;;;4197659;28;20692;-74
2022/04/25 03:42:39;;;;;;;4.97;3.20;;;6.10;99.90;;;;;;4181617;28;20427;-74
2022/04/25 03:44:40;;;;;;;5.43;3.30;;;6.20;99.90;;;;;;4197872;28;20430;-76
2022/04/25 03:46:41;;;;;;;3.60;2.37;;;6.20;99.90;;;;;;4198006;28;20425;-74
2022/04/25 03:48:44;;;;;;;3.67;2.90;;;6.10;99.90;;;;;;4198310;28;20195;-74
2022/04/25 03:50:44;;;;;;;4.90;3.27;;;6.00;99.90;;;;;;4198321;28;20180;-74
2022/04/25 03:52:46;;;;;;;5.20;4.07;;;6.00;99.90;;;;;;4199228;28;20485;-76
2022/04/25 03:57:12;;;;;;;3.60;2.70;;;6.20;99.90;;;;;;4198081;28;20409;-75
2022/04/25 03:59:13;;;;;;;4.13;3.07;;;6.30;99.90;;;;;;4199520;28;21137;-74
2022/04/25 04:01:13;;;;;;;3.70;2.97;;;6.40;99.90;;;;;;4198576;28;20422;-76
2022/04/25 04:03:17;;;;;;;4.50;3.07;;;6.30;99.90;;;;;;4198528;28;20184;-75
2022/04/25 04:05:20;;;;;;;6.10;3.60;;;6.30;99.90;;;;;;4182143;28;20211;-75
2022/04/25 04:07:20;;;;;;;5.10;3.70;;;6.40;99.90;;;;;;4198215;28;20925;-74
2022/04/25 04:11:46;;;;;;;5.00;3.60;;;6.50;99.90;;;;;;4196311;28;20182;-75
2022/04/25 04:13:47;;;;;;;7.53;4.40;;;6.70;99.90;;;;;;4198820;28;20469;-74
2022/04/25 04:15:48;;;;;;;9.43;6.40;;;6.70;99.90;;;;;;4196824;28;20430;-75
2022/04/25 04:17:48;;;;;;;11.07;7.07;;;6.60;99.90;;;;;;4198317;28;20475;-75
2022/04/25 04:19:50;;;;;;;9.10;6.17;;;6.60;99.90;;;;;;4197986;28;20217;-74
2022/04/25 04:21:52;;;;;;;4.60;3.17;;;6.70;99.90;;;;;;4199283;28;20677;-74
2022/04/25 04:23:52;;;;;;;4.10;3.43;;;6.60;99.90;;;;;;4197498;28;20418;-75
2022/04/25 04:25:53;;;;;;;6.40;4.27;;;6.60;99.90;;;;;;4198030;28;20432;-74
2022/04/25 04:27:54;;;;;;;4.67;3.60;;;6.50;99.90;;;;;;4199484;28;20198;-75
2022/04/25 04:29:55;;;;;;;4.97;3.70;;;6.60;99.90;;;;;;4198046;28;20701;-75
2022/04/25 04:32:05;;;;;;;5.60;4.03;;;6.60;99.90;;;;;;4199173;28;20175;-74
2022/04/25 04:34:06;;;;;;;5.67;3.90;;;6.80;99.90;;;;;;4197969;28;20925;-74
2022/04/25 04:36:18;;;;;;;4.77;3.40;;;6.70;99.90;;;;;;4182925;28;20431;-74
2022/04/25 04:38:19;;;;;;;7.70;5.30;;;6.70;99.90;;;;;;4182688;28;20724;-74
2022/04/25 04:40:29;;;;;;;5.83;4.10;;;6.70;99.90;;;;;;4182376;28;20462;-74
2022/04/25 04:42:29;;;;;;;5.37;4.50;;;6.70;99.90;;;;;;4180447;28;20187;-74
2022/04/25 04:44:30;;;;;;;5.17;3.77;;;6.70;99.90;;;;;;4177246;28;20427;-74
2022/04/25 04:46:30;;;;;;;5.90;4.40;;;6.80;99.90;;;;;;4178405;28;20238;-75
2022/04/25 04:48:31;;;;;;;4.23;3.33;;;6.90;99.90;;;;;;4179234;28;20200;-74
2022/04/25 04:50:32;;;;;;;5.10;3.83;;;6.90;99.90;;;;;;4180501;28;20180;-74
2022/04/25 04:52:33;;;;;;;4.77;3.63;;;6.80;99.90;;;;;;4177102;28;20223;-75
2022/04/25 04:54:34;;;;;;;4.83;3.77;;;6.80;99.90;;;;;;4178421;28;20427;-74
2022/04/25 04:56:35;;;;;;;6.27;3.93;;;6.80;99.90;;;;;;4176672;28;20578;-74
2022/04/25 04:58:36;;;;;;;5.97;4.23;;;6.80;99.90;;;;;;4176955;28;20212;-74
2022/04/25 05:00:36;;;;;;;7.07;5.03;;;6.80;99.90;;;;;;4181990;28;20744;-74
2022/04/25 05:02:38;;;;;;;5.20;4.33;;;7.00;99.90;;;;;;4193599;28;20238;-75
2022/04/25 05:04:39;;;;;;;7.23;4.77;;;6.90;99.90;;;;;;4193812;28;20665;-75
2022/04/25 05:06:39;;;;;;;7.17;4.80;;;6.90;99.90;;;;;;4190152;28;20446;-75
2022/04/25 05:08:40;;;;;;;7.00;5.03;;;7.00;99.90;;;;;;4181758;28;20357;-75
2022/04/25 05:10:41;;;;;;;7.70;5.00;;;7.00;99.90;;;;;;4194948;28;20188;-75
2022/04/25 05:12:54;;;;;;;7.07;5.30;;;7.10;99.90;;;;;;4195212;28;20180;-76
2022/04/25 05:14:54;;;;;;;7.10;5.30;;;7.10;99.90;;;;;;4193609;28;20164;-75
2022/04/25 05:16:55;;;;;;;6.13;4.90;;;7.10;99.90;;;;;;4194557;28;20507;-75
2022/04/25 05:18:56;;;;;;;9.30;4.87;;;7.20;99.90;;;;;;4195053;28;20235;-75
2022/04/25 05:20:57;;;;;;;6.90;5.17;;;7.30;99.90;;;;;;4195203;28;20162;-75
2022/04/25 05:22:58;;;;;;;5.97;4.40;;;7.30;99.90;;;;;;4195060;28;20418;-76
2022/04/25 05:24:59;;;;;;;6.97;5.30;;;7.30;99.90;;;;;;4193682;28;20182;-75
2022/04/25 05:27:00;;;;;;;6.70;5.00;;;7.30;99.90;;;;;;4194653;28;20262;-75
2022/04/25 05:29:01;;;;;;;8.37;5.90;;;7.40;99.90;;;;;;4194987;28;20525;-75
2022/04/25 05:31:01;;;;;;;8.47;6.20;;;7.50;99.90;;;;;;4195019;28;20745;-74
2022/04/25 05:33:02;;;;;;;10.20;6.90;;;7.60;99.90;;;;;;4194918;28;20180;-76
2022/04/25 05:35:06;;;;;;;7.53;5.63;;;7.60;99.90;;;;;;4196079;28;20532;-75
2022/04/25 05:37:09;;;;;;;7.03;5.43;;;7.60;99.90;;;;;;4197782;28;20496;-75
2022/04/25 05:39:10;;;;;;;6.50;4.63;;;7.70;99.90;;;;;;4180689;28;20479;-75
2022/04/25 05:41:11;;;;;;;7.17;5.27;;;7.70;99.90;;;;;;4197057;28;20185;-75
2022/04/25 05:43:12;;;;;;;9.10;5.40;;;7.80;99.90;;;;;;4198207;28;20175;-75
2022/04/25 05:45:15;;;;;;;8.60;4.23;;;7.90;99.90;;;;;;4179970;28;20223;-76
2022/04/25 05:47:16;;;;;;;7.13;5.23;;;8.00;99.90;;;;;;4196622;28;20177;-76
2022/04/25 05:53:55;;;;;;;6.40;5.23;;;8.00;99.90;;;;;;4196939;28;21014;-77
2022/04/25 05:55:55;;;;;;;6.47;4.87;;;7.90;99.90;;;;;;4197509;28;20180;-75
2022/04/25 05:57:58;;;;;;;8.43;6.07;;;7.90;99.90;;;;;;4196711;28;20254;-75
2022/04/25 05:59:58;;;;;;;7.57;5.40;;;8.00;99.90;;;;;;4196589;28;20214;-75
2022/04/25 06:01:59;;;;;;;7.20;5.50;;;8.00;99.90;;;;;;4196672;28;20447;-75
2022/04/25 06:03:59;;;;;;;6.70;4.87;;;8.10;99.90;;;;;;4197936;28;20638;-74
2022/04/25 06:06:00;;;;;;;6.33;4.33;;;8.20;99.90;;;;;;4196040;28;20186;-74
2022/04/25 06:08:01;;;;;;;8.70;5.53;;;8.30;99.90;;;;;;4196531;28;20203;-74
2022/04/25 06:10:03;;;;;;;7.07;5.27;;;8.20;99.90;;;;;;4197780;28;20188;-75
2022/04/25 06:12:05;;;;;;;8.53;5.20;;;8.10;99.90;;;;;;4196746;28;20230;-75
2022/04/25 06:14:05;;;;;;;7.13;5.23;;;8.10;99.90;;;;;;4198057;28;20188;-75
2022/04/25 06:16:06;;;;;;;6.60;4.77;;;8.20;99.90;;;;;;4179350;28;20439;-75
2022/04/25 06:18:07;;;;;;;7.07;4.50;;;8.30;99.90;;;;;;4198000;28;20205;-74
2022/04/25 06:20:09;;;;;;;6.00;4.87;;;8.30;99.90;;;;;;4197533;28;20304;-76
2022/04/25 06:22:10;;;;;;;6.47;5.23;;;8.40;99.90;;;;;;4196088;28;20264;-75
2022/04/25 06:24:11;;;;;;;5.90;4.37;;;8.40;99.90;;;;;;4196226;28;20788;-75
2022/04/25 06:26:12;;;;;;;5.70;4.57;;;8.50;99.90;;;;;;4196749;28;20691;-74
2022/04/25 06:28:13;;;;;;;6.87;5.30;;;8.70;99.90;;;;;;4197298;28;20240;-75
2022/04/25 06:30:14;;;;;;;6.77;5.00;;;8.80;99.90;;;;;;4197395;28;20741;-74
2022/04/25 06:32:15;;;;;;;6.50;4.87;;;8.70;99.90;;;;;;4195974;28;20211;-75
2022/04/25 06:34:16;;;;;;;5.03;4.20;;;8.60;99.90;;;;;;4195900;28;20298;-75
2022/04/25 06:36:16;;;;;;;5.10;4.13;;;8.80;99.90;;;;;;4195218;28;20271;-75
2022/04/25 06:38:18;;;;;;;4.63;3.70;;;8.80;99.90;;;;;;4196004;28;20202;-74
2022/04/25 06:40:20;;;;;;;6.33;4.60;;;8.90;99.90;;;;;;4197099;28;20223;-74
2022/04/25 06:42:21;;;;;;;5.53;4.57;;;8.80;99.90;;;;;;4179173;28;20219;-75
2022/04/25 06:44:22;;;;;;;5.63;4.53;;;8.90;99.90;;;;;;4184070;28;20213;-74
2022/04/25 06:46:23;;;;;;;5.33;4.00;;;8.90;99.90;;;;;;4179317;28;20211;-75
2022/04/25 06:48:23;;;;;;;6.03;4.83;;;9.00;99.90;;;;;;4180282;28;20210;-75
2022/04/25 06:50:24;;;;;;;6.03;4.33;;;9.10;99.90;;;;;;4178887;28;20273;-74
2022/04/25 06:52:25;;;;;;;5.40;4.27;;;9.10;99.90;;;;;;4181670;28;20191;-75
2022/04/25 06:54:28;;;;;;;5.30;4.03;;;9.10;99.90;;;;;;4195457;28;20249;-74
2022/04/25 06:56:29;;;;;;;5.73;4.10;;;9.30;99.90;;;;;;4195027;28;20183;-74
2022/04/25 06:58:29;;;;;;;5.47;3.70;;;9.20;99.90;;;;;;4196987;28;20200;-74
2022/04/25 07:00:30;;;;;;;5.63;4.10;;;9.20;99.90;;;;;;4195565;28;20211;-74
2022/04/25 07:02:31;;;;;;;4.30;3.90;;;9.20;99.90;;;;;;4196805;28;20190;-74
2022/04/25 07:04:31;;;;;;;5.33;3.97;;;9.20;99.90;;;;;;4196634;28;20222;-75
2022/04/25 07:06:33;;;;;;;6.20;4.27;;;9.20;99.90;;;;;;4194781;28;20194;-74
2022/04/25 07:08:34;;;;;;;5.80;3.87;;;9.40;99.90;;;;;;4195450;28;20992;-74
2022/04/25 07:10:34;;;;;;;5.27;4.20;;;9.60;99.90;;;;;;4196605;28;20190;-74
2022/04/25 07:12:35;;;;;;;5.17;3.83;;;9.80;99.90;;;;;;4196582;28;20180;-74
2022/04/25 07:14:36;;;;;;;5.13;3.93;;;9.90;99.90;;;;;;4195001;28;20183;-74
2022/04/25 07:16:36;;;;;;;4.73;3.63;;;10.10;99.90;;;;;;4195721;28;20218;-74
2022/04/25 07:18:37;;;;;;;5.33;4.57;;;10.10;99.30;;;;;;4196543;28;20203;-75
2022/04/25 07:20:38;;;;;;;4.33;3.93;;;10.50;99.70;;;;;;4196200;28;20212;-74
2022/04/25 07:29:35;;;;;;;4.30;3.50;;;10.40;98.20;;;;;;4195380;28;20689;-75
2022/04/25 07:31:36;;;;;;;5.40;4.37;;;10.40;99.20;;;;;;4195101;28;20179;-75
2022/04/25 07:33:40;;;;;;;5.60;4.43;;;10.50;99.00;;;;;;4195172;28;20179;-74
2022/04/25 07:35:40;;;;;;;5.10;4.30;;;10.40;98.50;;;;;;4195671;28;20188;-74
2022/04/25 07:37:42;;;;;;;5.53;4.10;;;10.30;98.70;;;;;;4196039;28;20622;-72
2022/04/25 07:39:45;;;;;;;4.30;3.90;;;10.20;99.50;;;;;;4194934;28;20207;-73
2022/04/25 07:41:48;;;;;;;4.53;3.80;;;10.10;99.30;;;;;;4194880;28;20179;-73
2022/04/25 07:43:49;;;;;;;5.07;3.60;;;10.40;99.70;;;;;;4194910;28;20233;-73
2022/04/25 07:45:50;;;;;;;6.93;4.20;;;10.30;98.20;;;;;;4194277;28;20176;-73
2022/04/25 07:47:51;;;;;;;6.13;4.43;;;10.30;97.90;;;;;;4196163;28;20663;-73
2022/04/25 07:49:52;;;;;;;5.60;4.40;;;10.20;97.60;;;;;;4196246;28;20175;-73
2022/04/25 07:51:54;;;;;;;5.83;4.93;;;10.10;97.90;;;;;;4194764;28;20768;-74
2022/04/25 07:53:56;;;;;;;4.47;3.73;;;10.20;97.00;;;;;;4194574;28;20183;-72
2022/04/25 07:55:57;;;;;;;5.97;4.77;;;10.30;98.20;;;;;;4194092;28;20199;-74
2022/04/25 07:57:58;;;;;;;6.23;5.07;;;10.70;97.50;;;;;;4193654;28;20210;-73
2022/04/25 07:59:59;;;;;;;6.57;5.17;;;10.90;94.70;;;;;;4195780;28;20677;-73
2022/04/25 08:02:00;;;;;;;5.97;4.40;;;10.90;95.60;;;;;;4196121;28;20230;-73
2022/04/25 08:04:01;;;;;;;6.00;4.93;;;11.10;94.80;;;;;;4197371;28;20714;-73
2022/04/25 08:06:02;;;;;;;5.13;4.43;;;11.10;95.30;;;;;;4198062;28;20214;-73
2022/04/25 08:08:02;;;;;;;6.97;5.17;;;10.90;94.20;;;;;;4180567;28;20355;-73
2022/04/25 08:10:04;;;;;;;5.33;4.60;;;11.20;92.60;;;;;;4197022;28;20194;-74
2022/04/25 08:17:59;;;;;;;5.60;4.30;;;11.50;92.60;;;;;;4197704;28;20191;-74
2022/04/25 08:19:10;;;;;;;5.83;4.60;;;12.10;90.60;;;;;;4196988;28;20223;-73
2022/04/25 08:21:11;;;;;;;6.43;4.70;;;12.30;88.70;;;;;;4196799;28;20205;-73
2022/04/25 08:23:13;;;;;;;6.93;5.43;;;12.50;87.30;;;;;;4196967;28;20186;-72
2022/04/25 08:25:15;;;;;;;7.30;5.30;;;12.70;86.10;;;;;;4198310;28;20191;-72
2022/04/25 08:27:15;;;;;;;5.60;4.33;;;12.60;85.00;;;;;;4197755;28;20183;-73
2022/04/25 08:29:16;;;;;;;7.07;5.40;;;12.30;86.40;;;;;;4198122;28;20206;-73
2022/04/25 08:31:17;;;;;;;5.87;4.47;;;11.70;88.70;;;;;;4196837;28;20184;-73
2022/04/25 08:33:19;;;;;;;6.97;4.93;;;11.50;90.10;;;;;;4198386;28;20179;-73
2022/04/25 08:35:21;;;;;;;6.13;4.60;;;11.70;91.10;;;;;;4195394;28;20183;-76
2022/04/25 08:37:21;;;;;;;5.90;4.90;;;11.80;89.40;;;;;;4197720;28;20176;-73
2022/04/25 08:39:22;;;;;;;5.27;4.70;;;11.80;88.60;;;;;;4198863;28;20272;-73
2022/04/25 08:41:43;;;;;;;5.40;4.20;;;11.50;90.00;;;;;;4199194;28;20187;-73
2022/04/25 08:43:44;;;;;;;4.70;4.10;;;11.80;90.10;;;;;;4195249;28;20176;-73
2022/04/25 08:45:45;;;;;;;5.63;4.47;;;12.10;90.50;;;;;;4194520;28;20192;-73
2022/04/25 08:48:00;;;;;;;6.23;4.53;;;11.80;86.50;;;;;;4195764;28;20658;-73
2022/04/25 08:50:00;;;;;;;6.63;5.70;;;11.40;90.20;;;;;;4197521;28;20229;-74
2022/04/25 08:52:04;;;;;;;7.17;5.67;;;11.20;90.40;;;;;;4198684;28;20241;-73
2022/04/25 08:54:08;;;;;;;7.20;5.70;;;10.90;90.70;;;;;;4198015;28;20544;-72
2022/04/25 08:56:09;;;;;;;6.33;5.53;;;10.50;91.80;;;;;;4177813;28;20198;-72
2022/04/25 08:58:12;;;;;;;7.20;5.53;;;10.30;92.50;;;;;;4194923;28;20203;-73
2022/04/25 09:00:15;;;;;;;7.77;5.37;;;10.20;93.00;;;;;;4194757;28;20433;-72
2022/04/25 09:02:15;;;;;;;8.50;6.07;;;10.30;93.40;;;;;;4194705;28;20690;-73
2022/04/25 09:04:17;;;;;;;7.20;5.33;;;10.40;93.90;;;;;;4194544;28;20190;-72
2022/04/25 09:06:17;;;;;;;8.80;4.97;;;10.30;94.30;;;;;;4194267;28;20266;-73
2022/04/25 09:08:18;;;;;;;7.13;4.70;;;10.30;94.30;;;;;;4194826;28;20219;-73
2022/04/25 09:10:20;;;;;;;6.47;5.30;;;10.40;93.90;;;;;;4195628;28;20187;-73
2022/04/25 09:12:21;;;;;;;8.10;4.90;;;10.40;93.80;;;;;;4195825;28;20198;-72
2022/04/25 09:14:23;;;;;;;9.97;5.77;;;10.60;94.40;;;;;;4196502;28;20188;-72
2022/04/25 09:16:24;;;;;;;6.20;4.27;;;10.50;92.80;;;;;;4194354;28;20187;-73
2022/04/25 09:18:25;;;;;;;5.67;4.50;;;10.50;93.00;;;;;;4196266;28;20262;-72
2022/04/25 09:20:26;;;;;;;5.43;4.60;;;10.40;93.00;;;;;;4195731;28;20738;-72
2022/04/25 09:22:37;;;;;;;7.20;4.77;;;10.20;94.40;;;;;;4176987;28;20189;-73
2022/04/25 09:24:45;;;;;;;7.77;4.87;;;10.00;95.40;;;;;;4194889;28;20183;-73
2022/04/25 09:26:46;;;;;;;5.97;4.40;;;9.90;97.90;;;;;;4192821;28;20183;-73
2022/04/25 09:28:53;;;;;;;6.90;5.63;;;9.70;97.50;;;;;;4193644;28;20203;-73
2022/04/25 09:31:01;;;;;;;8.50;5.63;;;9.60;99.30;;;;;;4193401;28;20179;-73
2022/04/25 09:33:02;;;;;;;7.13;4.60;;;9.60;99.50;;;;;;4193468;28;20163;-72
2022/04/25 09:35:29;;;;;;;6.40;5.00;;;9.40;99.60;;;;;;4193328;28;20237;-73
2022/04/25 09:37:46;;;;;;;6.67;5.53;;;9.40;99.90;;;;;;4193336;28;20566;-74
2022/04/25 09:39:46;;;;;;;7.83;5.10;;;9.30;99.90;;;;;;4194754;28;20229;-74
2022/04/25 09:41:47;;;;;;;8.47;6.17;;;9.30;99.90;;;;;;4193446;28;20187;-74
2022/04/25 09:43:48;;;;;;;8.27;6.53;;;9.30;99.90;;;;;;4194686;28;20186;-74
2022/04/25 09:46:09;;;;;;;9.23;7.10;;;9.40;99.90;;;;;;4192830;28;20176;-74
2022/04/25 09:48:23;;;;;;;8.33;6.20;;;9.50;99.90;;;;;;4193462;28;20198;-73
2022/04/25 09:50:27;;;;;;;10.87;7.37;;;9.70;99.90;;;;;;4193527;28;20201;-73
2022/04/25 09:52:29;;;;;;;9.10;6.70;;;9.60;99.90;;;;;;4194537;28;20191;-73
2022/04/25 09:54:30;;;;;;;10.73;7.40;;;9.60;99.90;;;;;;4193404;28;20226;-73
2022/04/25 09:56:31;;;;;;;10.03;7.77;;;9.60;99.90;;;;;;4192640;28;20205;-74
2022/04/25 09:58:32;;;;;;;12.67;8.77;;;9.60;99.90;;;;;;4194317;28;20290;-73
2022/04/25 10:00:38;;;;;;;11.93;8.93;;;9.70;99.90;;;;;;4194334;28;20741;-73
2022/04/25 10:02:40;;;;;;;11.27;7.33;;;9.70;99.90;;;;;;4194460;28;20265;-73
2022/04/25 10:04:41;;;;;;;11.70;7.13;;;9.80;99.90;;;;;;4193002;28;20795;-73
2022/04/25 10:06:43;;;;;;;7.73;5.87;;;9.70;99.90;;;;;;4193919;28;20244;-74
2022/04/25 10:08:44;;;;;;;8.37;5.93;;;9.70;99.90;;;;;;4193205;28;20209;-73
2022/04/25 10:10:53;;;;;;;7.20;5.73;;;9.40;99.90;;;;;;4193251;28;20700;-75
2022/04/25 10:12:55;;;;;;;4.73;4.10;;;9.20;99.90;;;;;;4193441;28;20182;-74
2022/04/25 10:14:58;;;;;;;7.57;4.13;;;8.80;99.90;;;;;;4194437;28;20188;-75
2022/04/25 10:17:00;;;;;;;6.60;4.77;;;8.30;99.90;;;;;;4194143;28;20201;-72
2022/04/25 10:19:00;;;;;;;6.00;4.33;;;8.20;99.90;;;;;;4193272;28;20700;-75
2022/04/25 10:21:02;;;;;;;3.23;2.17;;;8.10;99.90;;;;;;4194107;28;20176;-73
2022/04/25 10:23:09;;;;;;;3.63;2.83;;;7.90;99.90;;;;;;4196414;28;20227;-75
2022/04/25 10:25:10;;;;;;;1.90;1.60;;;7.80;99.90;;;;;;4197264;28;20481;-73
2022/04/25 10:27:14;;;;;;;2.40;1.60;;;7.70;99.90;;;;;;4196900;28;20428;-74
2022/04/25 10:29:21;;;;;;;2.83;1.77;;;7.50;99.90;;;;;;4196231;28;20453;-74
2022/04/25 10:31:26;;;;;;;1.63;1.30;;;7.50;99.90;;;;;;4195929;28;20538;-74
2022/04/25 10:33:28;;;;;;;1.60;1.40;;;7.70;99.90;;;;;;4196144;28;20422;-74
2022/04/25 10:35:32;;;;;;;2.30;1.60;;;7.80;99.90;;;;;;4196582;28;20479;-75
2022/04/25 10:37:43;;;;;;;2.20;1.77;;;7.80;99.90;;;;;;4197069;28;20447;-73
2022/04/25 10:39:48;;;;;;;4.30;1.80;;;8.00;99.90;;;;;;4196383;28;20458;-74
2022/04/25 10:44:19;;;;;;;2.30;1.70;;;7.70;99.90;;;;;;4196216;28;20472;-72
2022/04/25 10:46:19;;;;;;;1.40;1.17;;;7.90;99.90;;;;;;4194200;28;20426;-73
2022/04/25 10:48:20;;;;;;;2.07;1.60;;;8.10;99.90;;;;;;4196807;28;20453;-73
2022/04/25 10:50:21;;;;;;;2.47;1.50;;;8.10;99.90;;;;;;4197338;28;20883;-73
2022/04/25 10:52:34;;;;;;;1.57;1.23;;;8.20;99.90;;;;;;4197073;28;20186;-74
2022/04/25 10:54:48;;;;;;;1.90;1.53;;;8.30;99.90;;;;;;4196918;28;20642;-75
2022/04/25 10:57:07;;;;;;;2.53;1.93;;;8.30;99.90;;;;;;4196064;28;20184;-73
2022/04/25 10:59:29;;;;;;;2.10;1.30;;;8.50;99.90;;;;;;4196842;28;20207;-75
2022/04/25 11:01:31;;;;;;;1.97;1.40;;;8.80;99.90;;;;;;4195799;28;20432;-75
2022/04/25 11:03:32;;;;;;;1.73;1.60;;;8.80;99.90;;;;;;4198506;28;20189;-74
2022/04/25 11:05:57;;;;;;;2.63;2.07;;;8.90;99.90;;;;;;4195698;28;20430;-73
2022/04/25 11:08:16;;;;;;;2.97;1.57;;;8.70;99.90;;;;;;4196751;28;20755;-73
2022/04/25 11:10:47;;;;;;;2.70;1.40;;;9.00;99.90;;;;;;4197924;28;20190;-73